sensor_id;sensor_type;location;lat;lon;timestamp;temperature;humidity
61392;DHT22;47261;52.892;5.738;2022-11-23T00:00:27;9.20;97.80
61392;DHT22;47261;52.892;5.738;2022-11-23T00:02:53;9.20;97.80
61392;DHT22;47261;52.892;5.738;2022-11-23T00:05:19;9.20;97.90
61392;DHT22;47261;52.892;5.738;2022-11-23T00:07:44;9.20;97.90
61392;DHT22;47261;52.892;5.738;2022-11-23T00:10:10;9.20;97.90
61392;DHT22;47261;52.892;5.738;2022-11-23T00:12:36;9.20;97.90
61392;DHT22;47261;52.892;5.738;2022-11-23T00:15:02;9.20;97.90
61392;DHT22;47261;52.892;5.738;2022-11-23T00:17:27;9.20;98.00
61392;DHT22;47261;52.892;5.738;2022-11-23T00:19:53;9.20;98.00
61392;DHT22;47261;52.892;5.738;2022-11-23T00:22:19;9.20;98.00
61392;DHT22;47261;52.892;5.738;2022-11-23T00:24:45;9.20;98.10
61392;DHT22;47261;52.892;5.738;2022-11-23T00:27:11;9.20;98.40
61392;DHT22;47261;52.892;5.738;2022-11-23T00:29:36;9.20;98.10
61392;DHT22;47261;52.892;5.738;2022-11-23T00:32:02;9.20;98.10
61392;DHT22;47261;52.892;5.738;2022-11-23T00:34:28;9.20;98.20
61392;DHT22;47261;52.892;5.738;2022-11-23T00:36:53;9.20;98.20
61392;DHT22;47261;52.892;5.738;2022-11-23T00:39:19;9.20;98.20
61392;DHT22;47261;52.892;5.738;2022-11-23T00:41:44;9.20;98.20
61392;DHT22;47261;52.892;5.738;2022-11-23T00:44:10;9.20;98.30
61392;DHT22;47261;52.892;5.738;2022-11-23T00:46:35;9.20;98.30
61392;DHT22;47261;52.892;5.738;2022-11-23T00:49:01;9.20;98.30
61392;DHT22;47261;52.892;5.738;2022-11-23T00:51:32;9.20;98.30
61392;DHT22;47261;52.892;5.738;2022-11-23T00:53:58;9.20;98.40
61392;DHT22;47261;52.892;5.738;2022-11-23T00:56:25;9.30;98.40
61392;DHT22;47261;52.892;5.738;2022-11-23T00:58:51;9.20;98.40
61392;DHT22;47261;52.892;5.738;2022-11-23T01:01:20;9.20;98.30
61392;DHT22;47261;52.892;5.738;2022-11-23T01:03:49;9.20;98.30
61392;DHT22;47261;52.892;5.738;2022-11-23T01:06:17;9.20;98.30
61392;DHT22;47261;52.892;5.738;2022-11-23T01:08:50;9.20;98.40
61392;DHT22;47261;52.892;5.738;2022-11-23T01:11:16;9.20;98.40
61392;DHT22;47261;52.892;5.738;2022-11-23T01:13:42;9.20;98.40
61392;DHT22;47261;52.892;5.738;2022-11-23T01:16:13;9.20;98.50
61392;DHT22;47261;52.892;5.738;2022-11-23T01:18:39;9.20;98.50
61392;DHT22;47261;52.892;5.738;2022-11-23T01:21:05;9.30;98.50
61392;DHT22;47261;52.892;5.738;2022-11-23T01:23:30;9.30;98.50
61392;DHT22;47261;52.892;5.738;2022-11-23T01:25:56;9.30;98.60
61392;DHT22;47261;52.892;5.738;2022-11-23T01:28:22;9.30;98.60
61392;DHT22;47261;52.892;5.738;2022-11-23T01:30:47;9.30;98.80
61392;DHT22;47261;52.892;5.738;2022-11-23T01:33:13;9.30;98.60
61392;DHT22;47261;52.892;5.738;2022-11-23T01:35:38;9.30;98.60
61392;DHT22;47261;52.892;5.738;2022-11-23T01:38:04;9.30;98.60
61392;DHT22;47261;52.892;5.738;2022-11-23T01:40:38;9.40;98.70
61392;DHT22;47261;52.892;5.738;2022-11-23T01:43:06;9.40;98.60
61392;DHT22;47261;52.892;5.738;2022-11-23T01:45:52;9.40;98.60
61392;DHT22;47261;52.892;5.738;2022-11-23T01:48:24;9.40;98.70
61392;DHT22;47261;52.892;5.738;2022-11-23T01:50:51;9.40;98.70
61392;DHT22;47261;52.892;5.738;2022-11-23T01:53:18;9.40;98.70
61392;DHT22;47261;52.892;5.738;2022-11-23T01:55:45;9.40;98.70
61392;DHT22;47261;52.892;5.738;2022-11-23T01:58:14;9.40;98.70
61392;DHT22;47261;52.892;5.738;2022-11-23T02:00:40;9.40;98.60
61392;DHT22;47261;52.892;5.738;2022-11-23T02:03:08;9.40;98.60
61392;DHT22;47261;52.892;5.738;2022-11-23T02:05:41;9.40;98.60
61392;DHT22;47261;52.892;5.738;2022-11-23T02:08:08;9.40;98.90
61392;DHT22;47261;52.892;5.738;2022-11-23T02:10:34;9.40;98.90
61392;DHT22;47261;52.892;5.738;2022-11-23T02:13:03;9.40;98.60
61392;DHT22;47261;52.892;5.738;2022-11-23T02:15:30;9.50;98.60
61392;DHT22;47261;52.892;5.738;2022-11-23T02:17:57;9.40;98.60
61392;DHT22;47261;52.892;5.738;2022-11-23T02:20:24;9.40;98.60
61392;DHT22;47261;52.892;5.738;2022-11-23T02:28:12;9.40;98.70
61392;DHT22;47261;52.892;5.738;2022-11-23T02:30:39;9.40;98.50
61392;DHT22;47261;52.892;5.738;2022-11-23T02:33:06;9.40;98.50
61392;DHT22;47261;52.892;5.738;2022-11-23T02:35:32;9.40;98.50
61392;DHT22;47261;52.892;5.738;2022-11-23T02:37:59;9.30;98.40
61392;DHT22;47261;52.892;5.738;2022-11-23T02:40:32;9.30;98.40
61392;DHT22;47261;52.892;5.738;2022-11-23T02:42:58;9.30;98.40
61392;DHT22;47261;52.892;5.738;2022-11-23T02:47:56;9.20;98.40
61392;DHT22;47261;52.892;5.738;2022-11-23T02:50:21;9.30;98.40
61392;DHT22;47261;52.892;5.738;2022-11-23T02:52:47;9.20;98.40
61392;DHT22;47261;52.892;5.738;2022-11-23T02:55:13;9.20;98.40
61392;DHT22;47261;52.892;5.738;2022-11-23T02:57:38;9.20;98.40
61392;DHT22;47261;52.892;5.738;2022-11-23T03:00:04;9.20;98.40
61392;DHT22;47261;52.892;5.738;2022-11-23T03:02:30;9.10;98.40
61392;DHT22;47261;52.892;5.738;2022-11-23T03:04:56;9.10;98.40
61392;DHT22;47261;52.892;5.738;2022-11-23T03:07:21;9.10;98.40
61392;DHT22;47261;52.892;5.738;2022-11-23T03:09:47;9.10;98.50
61392;DHT22;47261;52.892;5.738;2022-11-23T03:12:12;9.10;98.50
61392;DHT22;47261;52.892;5.738;2022-11-23T03:14:38;9.10;98.60
61392;DHT22;47261;52.892;5.738;2022-11-23T03:17:04;9.10;98.60
61392;DHT22;47261;52.892;5.738;2022-11-23T03:19:29;9.10;98.60
61392;DHT22;47261;52.892;5.738;2022-11-23T03:21:55;9.10;98.60
61392;DHT22;47261;52.892;5.738;2022-11-23T03:24:20;9.10;98.60
61392;DHT22;47261;52.892;5.738;2022-11-23T03:26:46;9.10;98.60
61392;DHT22;47261;52.892;5.738;2022-11-23T03:29:12;9.10;98.60
61392;DHT22;47261;52.892;5.738;2022-11-23T03:31:38;9.10;98.70
61392;DHT22;47261;52.892;5.738;2022-11-23T03:34:03;9.10;98.70
61392;DHT22;47261;52.892;5.738;2022-11-23T03:36:29;9.10;98.70
61392;DHT22;47261;52.892;5.738;2022-11-23T03:38:54;9.10;98.70
61392;DHT22;47261;52.892;5.738;2022-11-23T03:41:20;9.10;98.70
61392;DHT22;47261;52.892;5.738;2022-11-23T03:43:46;9.10;98.70
61392;DHT22;47261;52.892;5.738;2022-11-23T03:46:12;9.20;98.70
61392;DHT22;47261;52.892;5.738;2022-11-23T03:48:37;9.10;98.70
61392;DHT22;47261;52.892;5.738;2022-11-23T03:51:03;9.10;98.90
61392;DHT22;47261;52.892;5.738;2022-11-23T03:53:29;9.20;98.70
61392;DHT22;47261;52.892;5.738;2022-11-23T03:55:54;9.20;98.70
61392;DHT22;47261;52.892;5.738;2022-11-23T03:58:22;9.20;98.70
61392;DHT22;47261;52.892;5.738;2022-11-23T04:00:47;9.20;98.70
61392;DHT22;47261;52.892;5.738;2022-11-23T04:03:13;9.20;98.70
61392;DHT22;47261;52.892;5.738;2022-11-23T04:05:38;9.20;98.70
61392;DHT22;47261;52.892;5.738;2022-11-23T04:08:04;9.20;98.70
61392;DHT22;47261;52.892;5.738;2022-11-23T04:10:30;9.20;98.70
61392;DHT22;47261;52.892;5.738;2022-11-23T04:12:55;9.20;98.60
61392;DHT22;47261;52.892;5.738;2022-11-23T04:15:21;9.20;98.60
61392;DHT22;47261;52.892;5.738;2022-11-23T04:17:46;9.20;98.60
61392;DHT22;47261;52.892;5.738;2022-11-23T04:20:12;9.10;98.50
61392;DHT22;47261;52.892;5.738;2022-11-23T04:22:38;9.20;98.60
61392;DHT22;47261;52.892;5.738;2022-11-23T04:25:04;9.10;98.60
61392;DHT22;47261;52.892;5.738;2022-11-23T04:27:30;9.10;98.60
61392;DHT22;47261;52.892;5.738;2022-11-23T04:29:56;9.10;98.70
61392;DHT22;47261;52.892;5.738;2022-11-23T04:32:21;9.10;98.70
61392;DHT22;47261;52.892;5.738;2022-11-23T04:34:48;9.10;98.70
61392;DHT22;47261;52.892;5.738;2022-11-23T04:37:13;9.10;98.70
61392;DHT22;47261;52.892;5.738;2022-11-23T04:39:39;9.10;98.70
61392;DHT22;47261;52.892;5.738;2022-11-23T04:42:04;9.20;99.00
61392;DHT22;47261;52.892;5.738;2022-11-23T04:44:30;9.10;98.70
61392;DHT22;47261;52.892;5.738;2022-11-23T04:46:56;9.20;98.70
61392;DHT22;47261;52.892;5.738;2022-11-23T04:49:21;9.20;98.70
61392;DHT22;47261;52.892;5.738;2022-11-23T04:51:47;9.20;98.60
61392;DHT22;47261;52.892;5.738;2022-11-23T04:54:12;9.20;98.60
61392;DHT22;47261;52.892;5.738;2022-11-23T04:56:38;9.10;98.60
61392;DHT22;47261;52.892;5.738;2022-11-23T04:59:04;9.10;98.50
61392;DHT22;47261;52.892;5.738;2022-11-23T05:01:29;9.10;98.50
61392;DHT22;47261;52.892;5.738;2022-11-23T05:03:55;9.10;98.50
61392;DHT22;47261;52.892;5.738;2022-11-23T05:06:20;9.00;98.50
61392;DHT22;47261;52.892;5.738;2022-11-23T05:08:46;9.00;98.50
61392;DHT22;47261;52.892;5.738;2022-11-23T05:11:11;9.00;98.40
61392;DHT22;47261;52.892;5.738;2022-11-23T05:13:37;9.00;98.40
61392;DHT22;47261;52.892;5.738;2022-11-23T05:16:03;9.00;98.50
61392;DHT22;47261;52.892;5.738;2022-11-23T05:18:28;8.90;98.40
61392;DHT22;47261;52.892;5.738;2022-11-23T05:20:54;9.00;98.50
61392;DHT22;47261;52.892;5.738;2022-11-23T05:23:20;8.90;98.50
61392;DHT22;47261;52.892;5.738;2022-11-23T05:25:45;8.90;98.50
61392;DHT22;47261;52.892;5.738;2022-11-23T05:28:16;8.90;98.50
61392;DHT22;47261;52.892;5.738;2022-11-23T05:30:42;8.90;98.60
61392;DHT22;47261;52.892;5.738;2022-11-23T05:33:07;8.90;98.60
61392;DHT22;47261;52.892;5.738;2022-11-23T05:35:33;8.90;98.60
61392;DHT22;47261;52.892;5.738;2022-11-23T05:38:00;8.90;98.60
61392;DHT22;47261;52.892;5.738;2022-11-23T05:40:26;8.90;98.70
61392;DHT22;47261;52.892;5.738;2022-11-23T05:42:55;8.90;98.70
61392;DHT22;47261;52.892;5.738;2022-11-23T05:45:22;8.90;98.80
61392;DHT22;47261;52.892;5.738;2022-11-23T05:47:56;8.90;98.80
61392;DHT22;47261;52.892;5.738;2022-11-23T05:50:23;8.90;98.80
61392;DHT22;47261;52.892;5.738;2022-11-23T05:52:49;8.90;98.80
61392;DHT22;47261;52.892;5.738;2022-11-23T05:55:15;8.90;98.80
61392;DHT22;47261;52.892;5.738;2022-11-23T05:57:41;8.90;98.80
61392;DHT22;47261;52.892;5.738;2022-11-23T06:00:07;8.90;98.80
61392;DHT22;47261;52.892;5.738;2022-11-23T06:02:35;8.90;98.80
61392;DHT22;47261;52.892;5.738;2022-11-23T06:05:00;8.90;98.80
61392;DHT22;47261;52.892;5.738;2022-11-23T06:07:26;8.90;98.70
61392;DHT22;47261;52.892;5.738;2022-11-23T06:09:51;8.90;98.70
61392;DHT22;47261;52.892;5.738;2022-11-23T06:12:17;8.90;98.70
61392;DHT22;47261;52.892;5.738;2022-11-23T06:14:43;8.80;98.70
61392;DHT22;47261;52.892;5.738;2022-11-23T06:17:08;8.80;98.60
61392;DHT22;47261;52.892;5.738;2022-11-23T06:19:34;8.90;98.70
61392;DHT22;47261;52.892;5.738;2022-11-23T06:22:00;8.90;98.70
61392;DHT22;47261;52.892;5.738;2022-11-23T06:24:25;8.90;98.70
61392;DHT22;47261;52.892;5.738;2022-11-23T06:26:51;8.90;98.70
61392;DHT22;47261;52.892;5.738;2022-11-23T06:29:18;8.90;98.70
61392;DHT22;47261;52.892;5.738;2022-11-23T06:31:44;8.90;98.70
61392;DHT22;47261;52.892;5.738;2022-11-23T06:34:10;8.90;98.70
61392;DHT22;47261;52.892;5.738;2022-11-23T06:36:36;8.90;98.70
61392;DHT22;47261;52.892;5.738;2022-11-23T06:39:02;8.90;98.70
61392;DHT22;47261;52.892;5.738;2022-11-23T06:41:28;9.00;98.70
61392;DHT22;47261;52.892;5.738;2022-11-23T06:43:53;9.00;98.70
61392;DHT22;47261;52.892;5.738;2022-11-23T06:46:19;9.00;98.60
61392;DHT22;47261;52.892;5.738;2022-11-23T06:48:45;9.00;98.60
61392;DHT22;47261;52.892;5.738;2022-11-23T06:51:12;9.00;98.60
61392;DHT22;47261;52.892;5.738;2022-11-23T06:53:38;9.00;98.50
61392;DHT22;47261;52.892;5.738;2022-11-23T06:56:03;9.10;98.50
61392;DHT22;47261;52.892;5.738;2022-11-23T06:58:29;9.10;98.50
61392;DHT22;47261;52.892;5.738;2022-11-23T07:01:06;9.10;98.50
61392;DHT22;47261;52.892;5.738;2022-11-23T07:03:33;9.10;98.50
61392;DHT22;47261;52.892;5.738;2022-11-23T07:06:07;9.10;98.40
61392;DHT22;47261;52.892;5.738;2022-11-23T07:08:33;9.10;98.40
61392;DHT22;47261;52.892;5.738;2022-11-23T07:11:02;9.00;98.30
61392;DHT22;47261;52.892;5.738;2022-11-23T07:13:28;9.10;98.30
61392;DHT22;47261;52.892;5.738;2022-11-23T07:15:54;9.00;98.30
61392;DHT22;47261;52.892;5.738;2022-11-23T07:18:19;9.00;98.30
61392;DHT22;47261;52.892;5.738;2022-11-23T07:20:45;9.00;98.30
61392;DHT22;47261;52.892;5.738;2022-11-23T07:23:10;9.00;98.20
61392;DHT22;47261;52.892;5.738;2022-11-23T07:25:37;9.00;98.20
61392;DHT22;47261;52.892;5.738;2022-11-23T07:28:04;9.00;98.20
61392;DHT22;47261;52.892;5.738;2022-11-23T07:30:31;9.00;98.20
61392;DHT22;47261;52.892;5.738;2022-11-23T07:33:02;9.00;98.30
61392;DHT22;47261;52.892;5.738;2022-11-23T07:35:28;9.10;98.30
61392;DHT22;47261;52.892;5.738;2022-11-23T07:37:54;9.00;98.30
61392;DHT22;47261;52.892;5.738;2022-11-23T07:40:20;9.00;98.30
61392;DHT22;47261;52.892;5.738;2022-11-23T07:42:45;9.00;98.30
61392;DHT22;47261;52.892;5.738;2022-11-23T07:45:11;9.10;98.30
61392;DHT22;47261;52.892;5.738;2022-11-23T07:47:38;9.00;98.30
61392;DHT22;47261;52.892;5.738;2022-11-23T07:50:08;9.10;98.30
61392;DHT22;47261;52.892;5.738;2022-11-23T07:52:35;9.10;98.30
61392;DHT22;47261;52.892;5.738;2022-11-23T07:55:02;9.10;98.30
61392;DHT22;47261;52.892;5.738;2022-11-23T07:57:27;9.20;98.40
61392;DHT22;47261;52.892;5.738;2022-11-23T07:59:53;9.20;98.30
61392;DHT22;47261;52.892;5.738;2022-11-23T08:02:19;9.20;98.30
61392;DHT22;47261;52.892;5.738;2022-11-23T08:04:45;9.20;98.30
61392;DHT22;47261;52.892;5.738;2022-11-23T08:07:11;9.30;98.30
61392;DHT22;47261;52.892;5.738;2022-11-23T08:09:37;9.30;98.20
61392;DHT22;47261;52.892;5.738;2022-11-23T08:12:03;9.30;98.20
61392;DHT22;47261;52.892;5.738;2022-11-23T08:14:29;9.30;98.10
61392;DHT22;47261;52.892;5.738;2022-11-23T08:16:54;9.30;98.10
61392;DHT22;47261;52.892;5.738;2022-11-23T08:19:20;9.30;98.10
61392;DHT22;47261;52.892;5.738;2022-11-23T08:21:46;9.30;98.00
61392;DHT22;47261;52.892;5.738;2022-11-23T08:24:11;9.30;98.00
61392;DHT22;47261;52.892;5.738;2022-11-23T08:26:37;9.30;98.00
61392;DHT22;47261;52.892;5.738;2022-11-23T08:29:03;9.30;98.10
61392;DHT22;47261;52.892;5.738;2022-11-23T08:31:29;9.30;97.90
61392;DHT22;47261;52.892;5.738;2022-11-23T08:33:55;9.30;97.80
61392;DHT22;47261;52.892;5.738;2022-11-23T08:36:21;9.30;97.70
61392;DHT22;47261;52.892;5.738;2022-11-23T08:38:46;9.30;97.70
61392;DHT22;47261;52.892;5.738;2022-11-23T08:41:16;9.30;97.70
61392;DHT22;47261;52.892;5.738;2022-11-23T08:43:45;9.30;97.70
61392;DHT22;47261;52.892;5.738;2022-11-23T08:46:11;9.30;97.70
61392;DHT22;47261;52.892;5.738;2022-11-23T08:48:37;9.30;97.70
61392;DHT22;47261;52.892;5.738;2022-11-23T08:51:02;9.30;97.60
61392;DHT22;47261;52.892;5.738;2022-11-23T08:53:28;9.20;97.50
61392;DHT22;47261;52.892;5.738;2022-11-23T08:55:54;9.30;97.50
61392;DHT22;47261;52.892;5.738;2022-11-23T08:58:19;9.30;97.40
61392;DHT22;47261;52.892;5.738;2022-11-23T09:00:45;9.30;97.40
61392;DHT22;47261;52.892;5.738;2022-11-23T09:03:11;9.30;97.40
61392;DHT22;47261;52.892;5.738;2022-11-23T09:05:37;9.30;97.30
61392;DHT22;47261;52.892;5.738;2022-11-23T09:08:03;9.40;97.30
61392;DHT22;47261;52.892;5.738;2022-11-23T09:10:29;9.40;97.20
61392;DHT22;47261;52.892;5.738;2022-11-23T09:12:55;9.40;97.20
61392;DHT22;47261;52.892;5.738;2022-11-23T09:15:20;9.40;97.20
61392;DHT22;47261;52.892;5.738;2022-11-23T09:17:46;9.40;97.20
61392;DHT22;47261;52.892;5.738;2022-11-23T09:20:12;9.40;97.10
61392;DHT22;47261;52.892;5.738;2022-11-23T09:22:37;9.50;97.20
61392;DHT22;47261;52.892;5.738;2022-11-23T09:25:04;9.50;97.10
61392;DHT22;47261;52.892;5.738;2022-11-23T09:27:31;9.50;97.10
61392;DHT22;47261;52.892;5.738;2022-11-23T09:29:57;9.60;97.10
61392;DHT22;47261;52.892;5.738;2022-11-23T09:32:22;9.60;97.10
61392;DHT22;47261;52.892;5.738;2022-11-23T09:34:48;9.60;97.10
61392;DHT22;47261;52.892;5.738;2022-11-23T09:37:13;9.60;97.00
61392;DHT22;47261;52.892;5.738;2022-11-23T09:39:39;9.60;97.00
61392;DHT22;47261;52.892;5.738;2022-11-23T09:42:25;9.70;97.00
61392;DHT22;47261;52.892;5.738;2022-11-23T09:45:01;9.70;96.90
61392;DHT22;47261;52.892;5.738;2022-11-23T09:51:13;9.80;96.80
61392;DHT22;47261;52.892;5.738;2022-11-23T09:53:52;9.80;96.80
61392;DHT22;47261;52.892;5.738;2022-11-23T09:56:22;9.80;96.80
61392;DHT22;47261;52.892;5.738;2022-11-23T09:59:01;9.80;96.70
61392;DHT22;47261;52.892;5.738;2022-11-23T10:01:28;9.80;96.70
61392;DHT22;47261;52.892;5.738;2022-11-23T10:03:55;9.80;96.70
61392;DHT22;47261;52.892;5.738;2022-11-23T10:06:24;9.90;96.70
61392;DHT22;47261;52.892;5.738;2022-11-23T10:12:07;9.90;96.50
61392;DHT22;47261;52.892;5.738;2022-11-23T10:22:50;10.00;96.90
61392;DHT22;47261;52.892;5.738;2022-11-23T10:25:22;10.10;97.20
61392;DHT22;47261;52.892;5.738;2022-11-23T10:27:50;10.30;97.20
61392;DHT22;47261;52.892;5.738;2022-11-23T10:30:19;10.50;97.10
61392;DHT22;47261;52.892;5.738;2022-11-23T10:35:31;10.70;96.70
61392;DHT22;47261;52.892;5.738;2022-11-23T10:38:14;10.80;96.40
61392;DHT22;47261;52.892;5.738;2022-11-23T10:40:57;10.80;96.10
61392;DHT22;47261;52.892;5.738;2022-11-23T10:43:27;10.90;95.70
61392;DHT22;47261;52.892;5.738;2022-11-23T10:51:52;10.80;94.30
61392;DHT22;47261;52.892;5.738;2022-11-23T11:02:48;10.50;94.70
61392;DHT22;47261;52.892;5.738;2022-11-23T11:05:21;10.60;95.20
61392;DHT22;47261;52.892;5.738;2022-11-23T11:07:48;10.70;95.10
61392;DHT22;47261;52.892;5.738;2022-11-23T11:10:40;10.70;95.10
61392;DHT22;47261;52.892;5.738;2022-11-23T11:16:00;10.90;95.00
61392;DHT22;47261;52.892;5.738;2022-11-23T11:18:32;11.00;94.90
61392;DHT22;47261;52.892;5.738;2022-11-23T11:21:04;11.00;94.70
61392;DHT22;47261;52.892;5.738;2022-11-23T11:23:31;11.10;94.70
61392;DHT22;47261;52.892;5.738;2022-11-23T11:26:21;11.20;94.90
61392;DHT22;47261;52.892;5.738;2022-11-23T11:28:52;11.40;94.90
61392;DHT22;47261;52.892;5.738;2022-11-23T11:36:56;11.60;94.00
61392;DHT22;47261;52.892;5.738;2022-11-23T11:39:56;11.60;93.40
61392;DHT22;47261;52.892;5.738;2022-11-23T11:42:32;11.60;93.50
61392;DHT22;47261;52.892;5.738;2022-11-23T11:45:00;11.70;93.50
61392;DHT22;47261;52.892;5.738;2022-11-23T11:47:32;11.70;93.40
61392;DHT22;47261;52.892;5.738;2022-11-23T11:50:00;11.80;93.40
61392;DHT22;47261;52.892;5.738;2022-11-23T11:52:36;11.80;93.10
61392;DHT22;47261;52.892;5.738;2022-11-23T11:55:20;11.80;92.50
61392;DHT22;47261;52.892;5.738;2022-11-23T11:57:51;11.80;92.70
61392;DHT22;47261;52.892;5.738;2022-11-23T12:00:19;11.80;92.90
61392;DHT22;47261;52.892;5.738;2022-11-23T12:03:07;11.90;92.90
61392;DHT22;47261;52.892;5.738;2022-11-23T12:05:48;11.90;92.50
61392;DHT22;47261;52.892;5.738;2022-11-23T12:08:42;11.80;92.30
61392;DHT22;47261;52.892;5.738;2022-11-23T12:11:11;11.80;92.10
61392;DHT22;47261;52.892;5.738;2022-11-23T12:13:40;11.80;91.80
61392;DHT22;47261;52.892;5.738;2022-11-23T12:30:03;11.90;90.20
61392;DHT22;47261;52.892;5.738;2022-11-23T12:41:01;12.00;88.10
61392;DHT22;47261;52.892;5.738;2022-11-23T12:44:03;12.00;88.60
61392;DHT22;47261;52.892;5.738;2022-11-23T12:49:32;11.80;88.30
61392;DHT22;47261;52.892;5.738;2022-11-23T12:57:25;11.50;88.60
61392;DHT22;47261;52.892;5.738;2022-11-23T13:00:21;11.40;89.40
61392;DHT22;47261;52.892;5.738;2022-11-23T13:08:26;11.40;89.80
61392;DHT22;47261;52.892;5.738;2022-11-23T13:13:51;11.40;89.80
61392;DHT22;47261;52.892;5.738;2022-11-23T13:16:49;11.50;88.80
61392;DHT22;47261;52.892;5.738;2022-11-23T13:19:49;11.50;89.40
61392;DHT22;47261;52.892;5.738;2022-11-23T13:22:19;11.50;90.10
61392;DHT22;47261;52.892;5.738;2022-11-23T13:27:42;11.60;89.90
61392;DHT22;47261;52.892;5.738;2022-11-23T13:42:47;11.50;89.60
61392;DHT22;47261;52.892;5.738;2022-11-23T13:45:25;11.50;89.50
61392;DHT22;47261;52.892;5.738;2022-11-23T13:50:38;11.40;89.50
61392;DHT22;47261;52.892;5.738;2022-11-23T13:53:24;11.30;89.40
61392;DHT22;47261;52.892;5.738;2022-11-23T13:55:57;11.30;89.40
61392;DHT22;47261;52.892;5.738;2022-11-23T14:00:57;11.10;89.40
61392;DHT22;47261;52.892;5.738;2022-11-23T14:09:05;10.90;89.90
61392;DHT22;47261;52.892;5.738;2022-11-23T14:12:33;10.80;89.90
61392;DHT22;47261;52.892;5.738;2022-11-23T14:20:14;10.50;90.30
61392;DHT22;47261;52.892;5.738;2022-11-23T14:33:55;10.40;90.90
61392;DHT22;47261;52.892;5.738;2022-11-23T14:36:49;10.40;91.00
61392;DHT22;47261;52.892;5.738;2022-11-23T14:41:58;10.40;91.00
61392;DHT22;47261;52.892;5.738;2022-11-23T14:44:27;10.40;91.10
61392;DHT22;47261;52.892;5.738;2022-11-23T14:47:05;10.40;91.20
61392;DHT22;47261;52.892;5.738;2022-11-23T14:49:31;10.40;91.40
61392;DHT22;47261;52.892;5.738;2022-11-23T14:51:57;10.30;91.50
61392;DHT22;47261;52.892;5.738;2022-11-23T14:54:24;10.30;91.80
61392;DHT22;47261;52.892;5.738;2022-11-23T14:56:52;10.20;91.90
61392;DHT22;47261;52.892;5.738;2022-11-23T14:59:27;10.20;92.10
61392;DHT22;47261;52.892;5.738;2022-11-23T15:04:31;10.10;92.40
61392;DHT22;47261;52.892;5.738;2022-11-23T15:07:18;10.00;92.60
61392;DHT22;47261;52.892;5.738;2022-11-23T15:12:45;9.90;93.30
61392;DHT22;47261;52.892;5.738;2022-11-23T15:15:27;9.80;93.50
61392;DHT22;47261;52.892;5.738;2022-11-23T15:17:59;9.70;93.60
61392;DHT22;47261;52.892;5.738;2022-11-23T15:20:33;9.70;93.80
61392;DHT22;47261;52.892;5.738;2022-11-23T15:23:01;9.60;94.00
61392;DHT22;47261;52.892;5.738;2022-11-23T15:25:28;9.60;94.20
61392;DHT22;47261;52.892;5.738;2022-11-23T15:27:54;9.60;94.30
61392;DHT22;47261;52.892;5.738;2022-11-23T15:30:28;9.60;94.40
61392;DHT22;47261;52.892;5.738;2022-11-23T15:32:58;9.50;94.50
61392;DHT22;47261;52.892;5.738;2022-11-23T15:35:30;9.50;94.60
61392;DHT22;47261;52.892;5.738;2022-11-23T15:37:57;9.50;94.70
61392;DHT22;47261;52.892;5.738;2022-11-23T15:40:28;9.50;94.70
61392;DHT22;47261;52.892;5.738;2022-11-23T15:42:54;9.50;94.70
61392;DHT22;47261;52.892;5.738;2022-11-23T15:48:15;9.40;95.00
61392;DHT22;47261;52.892;5.738;2022-11-23T15:50:51;9.40;95.00
61392;DHT22;47261;52.892;5.738;2022-11-23T15:53:20;9.30;95.10
61392;DHT22;47261;52.892;5.738;2022-11-23T15:55:48;9.30;95.20
61392;DHT22;47261;52.892;5.738;2022-11-23T15:58:17;9.30;95.30
61392;DHT22;47261;52.892;5.738;2022-11-23T16:00:53;9.30;95.40
61392;DHT22;47261;52.892;5.738;2022-11-23T16:06:16;9.30;95.50
61392;DHT22;47261;52.892;5.738;2022-11-23T16:08:42;9.30;95.70
61392;DHT22;47261;52.892;5.738;2022-11-23T16:13:48;9.30;95.90
61392;DHT22;47261;52.892;5.738;2022-11-23T16:16:17;9.20;95.90
61392;DHT22;47261;52.892;5.738;2022-11-23T16:18:46;9.30;96.00
61392;DHT22;47261;52.892;5.738;2022-11-23T16:21:18;9.20;96.00
61392;DHT22;47261;52.892;5.738;2022-11-23T16:23:48;9.20;96.00
61392;DHT22;47261;52.892;5.738;2022-11-23T16:26:14;9.20;96.10
61392;DHT22;47261;52.892;5.738;2022-11-23T16:28:53;9.20;96.30
61392;DHT22;47261;52.892;5.738;2022-11-23T16:31:40;9.10;96.50
61392;DHT22;47261;52.892;5.738;2022-11-23T16:34:15;9.10;96.50
61392;DHT22;47261;52.892;5.738;2022-11-23T16:36:41;9.10;96.60
61392;DHT22;47261;52.892;5.738;2022-11-23T16:39:06;9.10;96.70
61392;DHT22;47261;52.892;5.738;2022-11-23T16:41:32;9.10;96.80
61392;DHT22;47261;52.892;5.738;2022-11-23T16:43:57;9.10;96.90
61392;DHT22;47261;52.892;5.738;2022-11-23T16:46:23;9.10;97.00
61392;DHT22;47261;52.892;5.738;2022-11-23T16:48:49;9.10;97.10
61392;DHT22;47261;52.892;5.738;2022-11-23T16:51:17;9.10;97.10
61392;DHT22;47261;52.892;5.738;2022-11-23T16:53:44;9.10;97.20
61392;DHT22;47261;52.892;5.738;2022-11-23T16:56:21;9.00;97.20
61392;DHT22;47261;52.892;5.738;2022-11-23T16:58:48;9.00;97.30
61392;DHT22;47261;52.892;5.738;2022-11-23T17:01:26;9.00;97.30
61392;DHT22;47261;52.892;5.738;2022-11-23T17:03:52;9.00;97.30
61392;DHT22;47261;52.892;5.738;2022-11-23T17:06:18;9.00;97.30
61392;DHT22;47261;52.892;5.738;2022-11-23T17:08:48;9.00;97.40
61392;DHT22;47261;52.892;5.738;2022-11-23T17:11:24;9.00;97.50
61392;DHT22;47261;52.892;5.738;2022-11-23T17:13:53;9.00;97.60
61392;DHT22;47261;52.892;5.738;2022-11-23T17:16:21;9.00;97.60
61392;DHT22;47261;52.892;5.738;2022-11-23T17:18:47;9.00;97.60
61392;DHT22;47261;52.892;5.738;2022-11-23T17:21:12;9.00;97.60
61392;DHT22;47261;52.892;5.738;2022-11-23T17:23:39;9.00;97.60
61392;DHT22;47261;52.892;5.738;2022-11-23T17:26:35;9.00;97.60
61392;DHT22;47261;52.892;5.738;2022-11-23T17:29:04;9.00;97.70
61392;DHT22;47261;52.892;5.738;2022-11-23T17:31:30;9.00;97.70
61392;DHT22;47261;52.892;5.738;2022-11-23T17:33:55;9.00;97.70
61392;DHT22;47261;52.892;5.738;2022-11-23T17:36:21;9.00;97.70
61392;DHT22;47261;52.892;5.738;2022-11-23T17:38:47;9.00;97.80
61392;DHT22;47261;52.892;5.738;2022-11-23T17:41:14;9.00;97.80
61392;DHT22;47261;52.892;5.738;2022-11-23T17:43:40;9.00;97.80
61392;DHT22;47261;52.892;5.738;2022-11-23T17:46:15;9.00;97.80
61392;DHT22;47261;52.892;5.738;2022-11-23T17:48:41;9.00;97.80
61392;DHT22;47261;52.892;5.738;2022-11-23T17:51:09;9.00;97.90
61392;DHT22;47261;52.892;5.738;2022-11-23T17:53:35;9.00;98.00
61392;DHT22;47261;52.892;5.738;2022-11-23T17:56:01;9.00;98.10
61392;DHT22;47261;52.892;5.738;2022-11-23T17:58:26;9.10;98.20
61392;DHT22;47261;52.892;5.738;2022-11-23T18:00:52;9.10;98.30
61392;DHT22;47261;52.892;5.738;2022-11-23T18:03:17;9.10;98.30
61392;DHT22;47261;52.892;5.738;2022-11-23T18:05:43;9.10;98.40
61392;DHT22;47261;52.892;5.738;2022-11-23T18:08:10;9.10;98.40
61392;DHT22;47261;52.892;5.738;2022-11-23T18:10:35;9.10;98.40
61392;DHT22;47261;52.892;5.738;2022-11-23T18:13:01;9.10;98.40
61392;DHT22;47261;52.892;5.738;2022-11-23T18:15:27;9.10;98.40
61392;DHT22;47261;52.892;5.738;2022-11-23T18:17:54;9.10;98.50